sensor_id;sensor_type;location;lat;lon;timestamp;P1;durP1;ratioP1;P2;durP2;ratioP2
29120;SDS011;16191;49.548;8.658;2023-02-15T00:01:56;35.20;;;19.30;;
29120;SDS011;16191;49.548;8.658;2023-02-15T00:04:24;35.65;;;19.33;;
29120;SDS011;16191;49.548;8.658;2023-02-15T00:07:14;30.90;;;18.63;;
29120;SDS011;16191;49.548;8.658;2023-02-15T00:09:43;32.10;;;18.27;;
29120;SDS011;16191;49.548;8.658;2023-02-15T00:12:11;35.90;;;18.10;;
29120;SDS011;16191;49.548;8.658;2023-02-15T00:14:38;35.35;;;18.48;;
29120;SDS011;16191;49.548;8.658;2023-02-15T00:17:05;35.83;;;19.70;;
29120;SDS011;16191;49.548;8.658;2023-02-15T00:19:32;41.50;;;19.58;;
29120;SDS011;16191;49.548;8.658;2023-02-15T00:21:58;32.10;;;18.48;;
29120;SDS011;16191;49.548;8.658;2023-02-15T00:24:25;38.70;;;19.65;;
29120;SDS011;16191;49.548;8.658;2023-02-15T00:26:52;37.38;;;19.58;;
29120;SDS011;16191;49.548;8.658;2023-02-15T00:29:19;39.53;;;19.63;;
29120;SDS011;16191;49.548;8.658;2023-02-15T00:31:46;34.10;;;19.38;;
29120;SDS011;16191;49.548;8.658;2023-02-15T00:34:22;38.03;;;19.27;;
29120;SDS011;16191;49.548;8.658;2023-02-15T00:36:49;38.40;;;20.52;;
29120;SDS011;16191;49.548;8.658;2023-02-15T00:39:16;39.92;;;19.45;;
29120;SDS011;16191;49.548;8.658;2023-02-15T00:41:44;44.78;;;20.17;;
29120;SDS011;16191;49.548;8.658;2023-02-15T00:44:12;42.47;;;21.05;;
29120;SDS011;16191;49.548;8.658;2023-02-15T00:46:40;45.28;;;21.60;;
29120;SDS011;16191;49.548;8.658;2023-02-15T00:49:08;42.85;;;21.00;;
29120;SDS011;16191;49.548;8.658;2023-02-15T00:51:36;43.42;;;21.35;;
29120;SDS011;16191;49.548;8.658;2023-02-15T00:54:04;45.35;;;21.38;;
29120;SDS011;16191;49.548;8.658;2023-02-15T00:56:30;46.35;;;22.65;;
29120;SDS011;16191;49.548;8.658;2023-02-15T00:58:57;39.97;;;21.52;;
29120;SDS011;16191;49.548;8.658;2023-02-15T01:01:24;41.83;;;21.60;;
29120;SDS011;16191;49.548;8.658;2023-02-15T01:03:52;41.05;;;21.13;;
29120;SDS011;16191;49.548;8.658;2023-02-15T01:06:19;43.33;;;20.83;;
29120;SDS011;16191;49.548;8.658;2023-02-15T01:08:46;46.95;;;22.08;;
29120;SDS011;16191;49.548;8.658;2023-02-15T01:11:15;41.75;;;20.67;;
29120;SDS011;16191;49.548;8.658;2023-02-15T01:13:50;40.13;;;20.38;;
29120;SDS011;16191;49.548;8.658;2023-02-15T01:16:18;41.20;;;21.95;;
29120;SDS011;16191;49.548;8.658;2023-02-15T01:18:45;41.58;;;21.67;;
29120;SDS011;16191;49.548;8.658;2023-02-15T01:21:18;39.50;;;21.00;;
29120;SDS011;16191;49.548;8.658;2023-02-15T01:23:46;41.55;;;21.17;;
29120;SDS011;16191;49.548;8.658;2023-02-15T01:26:13;38.00;;;21.10;;
29120;SDS011;16191;49.548;8.658;2023-02-15T01:29:02;37.78;;;19.35;;
29120;SDS011;16191;49.548;8.658;2023-02-15T01:31:50;39.28;;;21.23;;
29120;SDS011;16191;49.548;8.658;2023-02-15T01:34:36;42.03;;;21.85;;
29120;SDS011;16191;49.548;8.658;2023-02-15T01:37:23;39.63;;;21.55;;
29120;SDS011;16191;49.548;8.658;2023-02-15T01:40:14;41.33;;;21.92;;
29120;SDS011;16191;49.548;8.658;2023-02-15T01:43:03;44.10;;;21.05;;
29120;SDS011;16191;49.548;8.658;2023-02-15T01:45:31;40.25;;;20.90;;
29120;SDS011;16191;49.548;8.658;2023-02-15T01:48:00;47.15;;;22.38;;
29120;SDS011;16191;49.548;8.658;2023-02-15T01:50:34;44.38;;;23.80;;
29120;SDS011;16191;49.548;8.658;2023-02-15T01:53:09;45.58;;;22.83;;
29120;SDS011;16191;49.548;8.658;2023-02-15T01:55:47;40.35;;;22.20;;
29120;SDS011;16191;49.548;8.658;2023-02-15T01:58:20;42.65;;;21.70;;
29120;SDS011;16191;49.548;8.658;2023-02-15T02:00:49;46.53;;;22.13;;
29120;SDS011;16191;49.548;8.658;2023-02-15T02:03:16;45.90;;;23.30;;
29120;SDS011;16191;49.548;8.658;2023-02-15T02:05:43;46.40;;;22.27;;
29120;SDS011;16191;49.548;8.658;2023-02-15T02:08:11;43.35;;;22.88;;
29120;SDS011;16191;49.548;8.658;2023-02-15T02:10:38;43.47;;;21.42;;
29120;SDS011;16191;49.548;8.658;2023-02-15T02:13:05;45.63;;;21.90;;
29120;SDS011;16191;49.548;8.658;2023-02-15T02:15:40;41.08;;;21.55;;
29120;SDS011;16191;49.548;8.658;2023-02-15T02:35:43;45.40;;;22.45;;
29120;SDS011;16191;49.548;8.658;2023-02-15T02:38:22;41.15;;;20.80;;
29120;SDS011;16191;49.548;8.658;2023-02-15T02:41:02;41.13;;;21.42;;
29120;SDS011;16191;49.548;8.658;2023-02-15T02:46:27;39.08;;;21.60;;
29120;SDS011;16191;49.548;8.658;2023-02-15T02:48:56;44.75;;;21.23;;
29120;SDS011;16191;49.548;8.658;2023-02-15T02:51:23;41.13;;;21.92;;
29120;SDS011;16191;49.548;8.658;2023-02-15T02:53:51;37.78;;;19.98;;
29120;SDS011;16191;49.548;8.658;2023-02-15T02:56:25;39.28;;;19.90;;
29120;SDS011;16191;49.548;8.658;2023-02-15T02:59:02;38.95;;;20.10;;
29120;SDS011;16191;49.548;8.658;2023-02-15T03:01:37;42.40;;;20.70;;
29120;SDS011;16191;49.548;8.658;2023-02-15T03:04:10;39.65;;;20.80;;
29120;SDS011;16191;49.548;8.658;2023-02-15T03:06:45;38.67;;;20.10;;
29120;SDS011;16191;49.548;8.658;2023-02-15T03:12:32;37.03;;;20.45;;
29120;SDS011;16191;49.548;8.658;2023-02-15T03:15:03;38.70;;;20.67;;
29120;SDS011;16191;49.548;8.658;2023-02-15T03:17:32;35.10;;;19.25;;
29120;SDS011;16191;49.548;8.658;2023-02-15T03:20:04;36.70;;;19.50;;
29120;SDS011;16191;49.548;8.658;2023-02-15T03:22:56;40.28;;;21.20;;
29120;SDS011;16191;49.548;8.658;2023-02-15T03:25:26;33.13;;;17.92;;
29120;SDS011;16191;49.548;8.658;2023-02-15T03:27:59;35.67;;;19.77;;
29120;SDS011;16191;49.548;8.658;2023-02-15T03:30:30;39.92;;;20.38;;
29120;SDS011;16191;49.548;8.658;2023-02-15T03:32:59;34.97;;;18.80;;
29120;SDS011;16191;49.548;8.658;2023-02-15T03:35:30;35.25;;;19.60;;
29120;SDS011;16191;49.548;8.658;2023-02-15T03:38:02;36.25;;;19.45;;
29120;SDS011;16191;49.548;8.658;2023-02-15T03:40:37;36.53;;;19.33;;
29120;SDS011;16191;49.548;8.658;2023-02-15T03:43:34;36.80;;;19.67;;
29120;SDS011;16191;49.548;8.658;2023-02-15T03:49:17;32.03;;;18.35;;
29120;SDS011;16191;49.548;8.658;2023-02-15T03:51:49;31.33;;;17.42;;
29120;SDS011;16191;49.548;8.658;2023-02-15T03:54:20;32.17;;;18.75;;
29120;SDS011;16191;49.548;8.658;2023-02-15T04:03:00;33.63;;;18.65;;
29120;SDS011;16191;49.548;8.658;2023-02-15T04:05:37;33.17;;;17.70;;
29120;SDS011;16191;49.548;8.658;2023-02-15T04:08:05;33.63;;;18.45;;
29120;SDS011;16191;49.548;8.658;2023-02-15T04:10:32;34.03;;;18.08;;
29120;SDS011;16191;49.548;8.658;2023-02-15T04:13:21;35.42;;;18.05;;
29120;SDS011;16191;49.548;8.658;2023-02-15T04:15:50;32.13;;;17.98;;
29120;SDS011;16191;49.548;8.658;2023-02-15T04:18:42;30.60;;;17.15;;
29120;SDS011;16191;49.548;8.658;2023-02-15T04:21:29;30.50;;;17.45;;
29120;SDS011;16191;49.548;8.658;2023-02-15T04:24:15;33.83;;;18.45;;
29120;SDS011;16191;49.548;8.658;2023-02-15T04:27:02;34.45;;;18.05;;
29120;SDS011;16191;49.548;8.658;2023-02-15T04:29:30;32.08;;;17.25;;
29120;SDS011;16191;49.548;8.658;2023-02-15T04:31:59;35.35;;;18.67;;
29120;SDS011;16191;49.548;8.658;2023-02-15T04:34:26;36.42;;;18.65;;
29120;SDS011;16191;49.548;8.658;2023-02-15T04:36:53;41.88;;;19.35;;
29120;SDS011;16191;49.548;8.658;2023-02-15T04:39:20;34.90;;;18.17;;
29120;SDS011;16191;49.548;8.658;2023-02-15T04:41:47;33.80;;;18.35;;
29120;SDS011;16191;49.548;8.658;2023-02-15T04:44:14;39.20;;;19.25;;
29120;SDS011;16191;49.548;8.658;2023-02-15T04:46:41;37.50;;;19.17;;
29120;SDS011;16191;49.548;8.658;2023-02-15T04:49:08;40.08;;;20.10;;
29120;SDS011;16191;49.548;8.658;2023-02-15T04:51:36;44.90;;;19.90;;
29120;SDS011;16191;49.548;8.658;2023-02-15T04:54:02;38.05;;;19.42;;
29120;SDS011;16191;49.548;8.658;2023-02-15T04:56:29;38.78;;;19.63;;
29120;SDS011;16191;49.548;8.658;2023-02-15T04:58:56;38.05;;;19.20;;
29120;SDS011;16191;49.548;8.658;2023-02-15T05:01:23;35.28;;;18.27;;
29120;SDS011;16191;49.548;8.658;2023-02-15T05:03:50;43.75;;;19.55;;
29120;SDS011;16191;49.548;8.658;2023-02-15T05:06:16;38.03;;;19.02;;
29120;SDS011;16191;49.548;8.658;2023-02-15T05:08:43;35.63;;;18.20;;
29120;SDS011;16191;49.548;8.658;2023-02-15T05:11:10;34.90;;;18.65;;
29120;SDS011;16191;49.548;8.658;2023-02-15T05:13:37;37.90;;;18.90;;
29120;SDS011;16191;49.548;8.658;2023-02-15T05:16:04;38.33;;;19.17;;
29120;SDS011;16191;49.548;8.658;2023-02-15T05:18:31;39.15;;;19.35;;
29120;SDS011;16191;49.548;8.658;2023-02-15T05:20:57;37.47;;;19.38;;
29120;SDS011;16191;49.548;8.658;2023-02-15T05:23:27;34.47;;;17.58;;
29120;SDS011;16191;49.548;8.658;2023-02-15T05:25:53;30.85;;;17.55;;
29120;SDS011;16191;49.548;8.658;2023-02-15T05:28:39;32.33;;;16.95;;
29120;SDS011;16191;49.548;8.658;2023-02-15T05:31:07;32.17;;;16.70;;
29120;SDS011;16191;49.548;8.658;2023-02-15T05:33:38;28.40;;;15.43;;
29120;SDS011;16191;49.548;8.658;2023-02-15T05:36:06;25.58;;;14.48;;
29120;SDS011;16191;49.548;8.658;2023-02-15T05:38:33;28.33;;;16.23;;
29120;SDS011;16191;49.548;8.658;2023-02-15T05:41:00;27.55;;;16.38;;
29120;SDS011;16191;49.548;8.658;2023-02-15T05:43:28;25.65;;;15.15;;
29120;SDS011;16191;49.548;8.658;2023-02-15T05:45:55;24.80;;;14.35;;
29120;SDS011;16191;49.548;8.658;2023-02-15T05:48:22;25.98;;;15.35;;
29120;SDS011;16191;49.548;8.658;2023-02-15T05:50:57;24.45;;;14.85;;
29120;SDS011;16191;49.548;8.658;2023-02-15T05:53:31;29.35;;;15.30;;
29120;SDS011;16191;49.548;8.658;2023-02-15T05:55:59;31.65;;;15.85;;
29120;SDS011;16191;49.548;8.658;2023-02-15T05:58:28;25.00;;;14.25;;
29120;SDS011;16191;49.548;8.658;2023-02-15T06:00:57;25.52;;;15.45;;
29120;SDS011;16191;49.548;8.658;2023-02-15T06:03:24;26.52;;;15.35;;
29120;SDS011;16191;49.548;8.658;2023-02-15T06:05:52;30.55;;;15.15;;
29120;SDS011;16191;49.548;8.658;2023-02-15T06:08:18;36.92;;;17.75;;
29120;SDS011;16191;49.548;8.658;2023-02-15T06:10:45;31.42;;;17.05;;
29120;SDS011;16191;49.548;8.658;2023-02-15T06:13:13;31.00;;;16.98;;
29120;SDS011;16191;49.548;8.658;2023-02-15T06:15:39;34.95;;;18.10;;
29120;SDS011;16191;49.548;8.658;2023-02-15T06:18:06;34.05;;;18.38;;
29120;SDS011;16191;49.548;8.658;2023-02-15T06:20:32;31.23;;;17.17;;
29120;SDS011;16191;49.548;8.658;2023-02-15T06:22:59;32.22;;;17.33;;
29120;SDS011;16191;49.548;8.658;2023-02-15T06:25:26;35.00;;;17.67;;
29120;SDS011;16191;49.548;8.658;2023-02-15T06:27:52;35.85;;;18.33;;
29120;SDS011;16191;49.548;8.658;2023-02-15T06:30:19;35.45;;;18.52;;
29120;SDS011;16191;49.548;8.658;2023-02-15T06:32:46;35.17;;;18.05;;
29120;SDS011;16191;49.548;8.658;2023-02-15T06:35:13;40.42;;;19.50;;
29120;SDS011;16191;49.548;8.658;2023-02-15T06:37:40;37.78;;;19.17;;
29120;SDS011;16191;49.548;8.658;2023-02-15T06:40:07;33.83;;;18.30;;
29120;SDS011;16191;49.548;8.658;2023-02-15T06:42:34;33.75;;;17.60;;
29120;SDS011;16191;49.548;8.658;2023-02-15T06:45:01;34.63;;;17.75;;
29120;SDS011;16191;49.548;8.658;2023-02-15T06:47:28;35.00;;;18.60;;
29120;SDS011;16191;49.548;8.658;2023-02-15T06:49:54;33.67;;;18.90;;
29120;SDS011;16191;49.548;8.658;2023-02-15T06:52:21;35.83;;;18.85;;
29120;SDS011;16191;49.548;8.658;2023-02-15T06:54:48;35.35;;;17.88;;
29120;SDS011;16191;49.548;8.658;2023-02-15T06:57:15;37.90;;;18.77;;
29120;SDS011;16191;49.548;8.658;2023-02-15T06:59:42;39.55;;;20.48;;
29120;SDS011;16191;49.548;8.658;2023-02-15T07:02:10;32.20;;;19.13;;
29120;SDS011;16191;49.548;8.658;2023-02-15T07:04:38;29.73;;;17.63;;
29120;SDS011;16191;49.548;8.658;2023-02-15T07:07:07;33.60;;;18.10;;
29120;SDS011;16191;49.548;8.658;2023-02-15T07:09:35;31.58;;;17.98;;
29120;SDS011;16191;49.548;8.658;2023-02-15T07:12:02;38.50;;;19.05;;
29120;SDS011;16191;49.548;8.658;2023-02-15T07:14:48;31.70;;;18.17;;
29120;SDS011;16191;49.548;8.658;2023-02-15T07:17:14;35.72;;;18.30;;
29120;SDS011;16191;49.548;8.658;2023-02-15T07:20:02;33.00;;;17.50;;
29120;SDS011;16191;49.548;8.658;2023-02-15T07:22:34;36.83;;;19.85;;
29120;SDS011;16191;49.548;8.658;2023-02-15T07:25:05;35.90;;;18.42;;
29120;SDS011;16191;49.548;8.658;2023-02-15T07:27:33;41.65;;;21.00;;
29120;SDS011;16191;49.548;8.658;2023-02-15T07:30:00;36.42;;;19.27;;
29120;SDS011;16191;49.548;8.658;2023-02-15T07:32:28;35.45;;;18.77;;
29120;SDS011;16191;49.548;8.658;2023-02-15T07:34:56;39.72;;;18.95;;
29120;SDS011;16191;49.548;8.658;2023-02-15T07:37:24;34.25;;;17.45;;
29120;SDS011;16191;49.548;8.658;2023-02-15T07:39:51;35.10;;;18.13;;
29120;SDS011;16191;49.548;8.658;2023-02-15T07:42:18;32.47;;;18.25;;
29120;SDS011;16191;49.548;8.658;2023-02-15T07:44:46;29.88;;;16.80;;
29120;SDS011;16191;49.548;8.658;2023-02-15T07:47:13;32.47;;;17.85;;
29120;SDS011;16191;49.548;8.658;2023-02-15T07:49:40;30.08;;;17.52;;
29120;SDS011;16191;49.548;8.658;2023-02-15T07:52:06;27.00;;;16.40;;
29120;SDS011;16191;49.548;8.658;2023-02-15T07:54:34;30.20;;;17.42;;
29120;SDS011;16191;49.548;8.658;2023-02-15T07:57:01;28.10;;;16.33;;
29120;SDS011;16191;49.548;8.658;2023-02-15T07:59:28;34.70;;;19.00;;
29120;SDS011;16191;49.548;8.658;2023-02-15T08:01:55;30.95;;;18.73;;
29120;SDS011;16191;49.548;8.658;2023-02-15T08:04:23;28.90;;;17.77;;
29120;SDS011;16191;49.548;8.658;2023-02-15T08:06:53;29.38;;;16.35;;
29120;SDS011;16191;49.548;8.658;2023-02-15T08:09:21;31.77;;;18.80;;
29120;SDS011;16191;49.548;8.658;2023-02-15T08:11:48;29.33;;;17.02;;
29120;SDS011;16191;49.548;8.658;2023-02-15T08:14:19;28.98;;;16.95;;
29120;SDS011;16191;49.548;8.658;2023-02-15T08:16:50;28.95;;;17.88;;
29120;SDS011;16191;49.548;8.658;2023-02-15T08:19:19;35.63;;;18.65;;
29120;SDS011;16191;49.548;8.658;2023-02-15T08:21:52;34.78;;;18.05;;
29120;SDS011;16191;49.548;8.658;2023-02-15T08:24:20;33.47;;;17.42;;
29120;SDS011;16191;49.548;8.658;2023-02-15T08:26:48;30.65;;;18.73;;
29120;SDS011;16191;49.548;8.658;2023-02-15T08:29:17;34.95;;;18.45;;
29120;SDS011;16191;49.548;8.658;2023-02-15T08:31:49;31.25;;;18.20;;
29120;SDS011;16191;49.548;8.658;2023-02-15T08:34:17;33.55;;;18.38;;
29120;SDS011;16191;49.548;8.658;2023-02-15T08:36:45;32.15;;;18.55;;
29120;SDS011;16191;49.548;8.658;2023-02-15T08:39:13;30.80;;;17.38;;
29120;SDS011;16191;49.548;8.658;2023-02-15T08:41:44;31.13;;;18.50;;
29120;SDS011;16191;49.548;8.658;2023-02-15T08:44:13;32.20;;;18.42;;
29120;SDS011;16191;49.548;8.658;2023-02-15T08:46:42;33.38;;;18.77;;
29120;SDS011;16191;49.548;8.658;2023-02-15T08:49:12;31.65;;;17.90;;
29120;SDS011;16191;49.548;8.658;2023-02-15T08:51:40;27.00;;;15.95;;
29120;SDS011;16191;49.548;8.658;2023-02-15T08:54:11;28.45;;;17.05;;
29120;SDS011;16191;49.548;8.658;2023-02-15T08:56:40;34.03;;;17.88;;
29120;SDS011;16191;49.548;8.658;2023-02-15T08:59:12;29.13;;;16.70;;
29120;SDS011;16191;49.548;8.658;2023-02-15T09:01:44;32.88;;;18.00;;
29120;SDS011;16191;49.548;8.658;2023-02-15T09:04:11;30.85;;;18.17;;
29120;SDS011;16191;49.548;8.658;2023-02-15T09:06:39;34.08;;;17.98;;
29120;SDS011;16191;49.548;8.658;2023-02-15T09:09:07;34.88;;;20.38;;
29120;SDS011;16191;49.548;8.658;2023-02-15T09:11:36;35.35;;;20.27;;
29120;SDS011;16191;49.548;8.658;2023-02-15T09:14:05;33.30;;;18.33;;
29120;SDS011;16191;49.548;8.658;2023-02-15T09:16:35;35.90;;;20.65;;
29120;SDS011;16191;49.548;8.658;2023-02-15T09:19:04;34.65;;;19.15;;
29120;SDS011;16191;49.548;8.658;2023-02-15T09:21:33;33.42;;;19.52;;
29120;SDS011;16191;49.548;8.658;2023-02-15T09:24:03;38.67;;;22.02;;
29120;SDS011;16191;49.548;8.658;2023-02-15T09:26:33;38.97;;;21.60;;
29120;SDS011;16191;49.548;8.658;2023-02-15T09:29:01;40.40;;;21.77;;
29120;SDS011;16191;49.548;8.658;2023-02-15T09:31:30;37.35;;;21.33;;
29120;SDS011;16191;49.548;8.658;2023-02-15T09:34:00;42.45;;;22.83;;
29120;SDS011;16191;49.548;8.658;2023-02-15T09:36:29;45.42;;;24.25;;
29120;SDS011;16191;49.548;8.658;2023-02-15T09:56:27;59.40;;;29.80;;
29120;SDS011;16191;49.548;8.658;2023-02-15T10:01:43;54.08;;;28.65;;
29120;SDS011;16191;49.548;8.658;2023-02-15T10:12:44;61.47;;;30.02;;
29120;SDS011;16191;49.548;8.658;2023-02-15T10:23:21;56.08;;;27.67;;
29120;SDS011;16191;49.548;8.658;2023-02-15T10:34:17;65.70;;;32.88;;
29120;SDS011;16191;49.548;8.658;2023-02-15T10:40:18;63.53;;;32.03;;
29120;SDS011;16191;49.548;8.658;2023-02-15T10:45:56;54.38;;;29.98;;
29120;SDS011;16191;49.548;8.658;2023-02-15T10:48:29;57.55;;;30.17;;
29120;SDS011;16191;49.548;8.658;2023-02-15T10:51:16;70.95;;;35.33;;
29120;SDS011;16191;49.548;8.658;2023-02-15T10:56:46;66.55;;;32.42;;
29120;SDS011;16191;49.548;8.658;2023-02-15T11:07:43;51.20;;;28.27;;
29120;SDS011;16191;49.548;8.658;2023-02-15T11:12:42;53.70;;;28.43;;
29120;SDS011;16191;49.548;8.658;2023-02-15T11:15:16;62.42;;;30.33;;
29120;SDS011;16191;49.548;8.658;2023-02-15T11:17:58;50.13;;;27.80;;
29120;SDS011;16191;49.548;8.658;2023-02-15T11:20:33;53.47;;;27.90;;
29120;SDS011;16191;49.548;8.658;2023-02-15T11:23:10;51.35;;;27.55;;
29120;SDS011;16191;49.548;8.658;2023-02-15T11:25:43;54.50;;;29.70;;
29120;SDS011;16191;49.548;8.658;2023-02-15T11:28:21;52.45;;;28.10;;
29120;SDS011;16191;49.548;8.658;2023-02-15T11:30:55;52.08;;;28.52;;
29120;SDS011;16191;49.548;8.658;2023-02-15T11:33:34;46.17;;;27.88;;
29120;SDS011;16191;49.548;8.658;2023-02-15T11:36:05;49.45;;;27.33;;
29120;SDS011;16191;49.548;8.658;2023-02-15T11:38:58;59.00;;;31.15;;
29120;SDS011;16191;49.548;8.658;2023-02-15T11:41:31;55.97;;;31.25;;
29120;SDS011;16191;49.548;8.658;2023-02-15T11:46:48;55.90;;;31.55;;
29120;SDS011;16191;49.548;8.658;2023-02-15T11:49:22;60.67;;;32.85;;
29120;SDS011;16191;49.548;8.658;2023-02-15T11:51:53;65.10;;;35.63;;
29120;SDS011;16191;49.548;8.658;2023-02-15T11:54:28;51.23;;;29.80;;
29120;SDS011;16191;49.548;8.658;2023-02-15T11:57:11;53.65;;;30.30;;
29120;SDS011;16191;49.548;8.658;2023-02-15T11:59:44;47.83;;;28.10;;
29120;SDS011;16191;49.548;8.658;2023-02-15T12:02:18;51.58;;;30.40;;
29120;SDS011;16191;49.548;8.658;2023-02-15T12:07:20;54.08;;;30.30;;
29120;SDS011;16191;49.548;8.658;2023-02-15T12:09:56;57.25;;;29.98;;
29120;SDS011;16191;49.548;8.658;2023-02-15T12:12:32;52.25;;;28.23;;
29120;SDS011;16191;49.548;8.658;2023-02-15T12:15:01;54.83;;;30.25;;
29120;SDS011;16191;49.548;8.658;2023-02-15T12:17:38;53.28;;;28.23;;
29120;SDS011;16191;49.548;8.658;2023-02-15T12:28:24;63.25;;;33.65;;
29120;SDS011;16191;49.548;8.658;2023-02-15T12:30:56;58.10;;;31.93;;
29120;SDS011;16191;49.548;8.658;2023-02-15T12:33:34;58.75;;;32.65;;
29120;SDS011;16191;49.548;8.658;2023-02-15T12:36:18;57.78;;;31.63;;
29120;SDS011;16191;49.548;8.658;2023-02-15T12:44:25;53.88;;;31.63;;
29120;SDS011;16191;49.548;8.658;2023-02-15T12:46:56;54.92;;;32.17;;
29120;SDS011;16191;49.548;8.658;2023-02-15T12:49:44;58.63;;;33.28;;
29120;SDS011;16191;49.548;8.658;2023-02-15T12:52:30;62.05;;;34.72;;
29120;SDS011;16191;49.548;8.658;2023-02-15T12:55:09;57.67;;;31.35;;
29120;SDS011;16191;49.548;8.658;2023-02-15T12:57:44;55.28;;;32.40;;
29120;SDS011;16191;49.548;8.658;2023-02-15T13:02:51;57.97;;;32.90;;
29120;SDS011;16191;49.548;8.658;2023-02-15T13:05:36;57.88;;;32.08;;
29120;SDS011;16191;49.548;8.658;2023-02-15T13:11:02;62.88;;;34.17;;
29120;SDS011;16191;49.548;8.658;2023-02-15T13:16:30;56.42;;;32.72;;
29120;SDS011;16191;49.548;8.658;2023-02-15T13:19:02;55.90;;;30.80;;
29120;SDS011;16191;49.548;8.658;2023-02-15T13:21:39;61.58;;;34.30;;
29120;SDS011;16191;49.548;8.658;2023-02-15T13:24:19;59.55;;;34.30;;
29120;SDS011;16191;49.548;8.658;2023-02-15T13:26:49;59.90;;;32.92;;
29120;SDS011;16191;49.548;8.658;2023-02-15T13:29:28;61.15;;;35.20;;
29120;SDS011;16191;49.548;8.658;2023-02-15T13:31:57;66.40;;;36.57;;
29120;SDS011;16191;49.548;8.658;2023-02-15T13:34:36;63.92;;;34.72;;
29120;SDS011;16191;49.548;8.658;2023-02-15T13:39:49;60.38;;;33.70;;
29120;SDS011;16191;49.548;8.658;2023-02-15T13:42:25;60.28;;;34.53;;
29120;SDS011;16191;49.548;8.658;2023-02-15T13:48:03;59.22;;;33.20;;
29120;SDS011;16191;49.548;8.658;2023-02-15T13:56:09;53.47;;;30.88;;
29120;SDS011;16191;49.548;8.658;2023-02-15T14:01:31;60.50;;;33.17;;
29120;SDS011;16191;49.548;8.658;2023-02-15T14:04:27;57.50;;;33.15;;
29120;SDS011;16191;49.548;8.658;2023-02-15T14:12:22;56.03;;;33.30;;
29120;SDS011;16191;49.548;8.658;2023-02-15T14:15:32;56.90;;;32.85;;
29120;SDS011;16191;49.548;8.658;2023-02-15T14:17:55;55.50;;;33.90;;
29120;SDS011;16191;49.548;8.658;2023-02-15T14:27:19;71.93;;;38.33;;
29120;SDS011;16191;49.548;8.658;2023-02-15T14:29:28;61.95;;;34.85;;
29120;SDS011;16191;49.548;8.658;2023-02-15T14:32:16;62.58;;;36.42;;
29120;SDS011;16191;49.548;8.658;2023-02-15T14:34:58;63.75;;;36.78;;
29120;SDS011;16191;49.548;8.658;2023-02-15T14:37:39;62.70;;;35.40;;
29120;SDS011;16191;49.548;8.658;2023-02-15T14:40:26;59.65;;;33.47;;
29120;SDS011;16191;49.548;8.658;2023-02-15T14:43:31;63.95;;;35.75;;
29120;SDS011;16191;49.548;8.658;2023-02-15T14:46:14;63.33;;;37.05;;
29120;SDS011;16191;49.548;8.658;2023-02-15T14:56:42;52.67;;;29.85;;
29120;SDS011;16191;49.548;8.658;2023-02-15T15:01:41;54.78;;;30.52;;
29120;SDS011;16191;49.548;8.658;2023-02-15T15:04:24;50.38;;;29.15;;
29120;SDS011;16191;49.548;8.658;2023-02-15T15:07:04;47.70;;;28.42;;
29120;SDS011;16191;49.548;8.658;2023-02-15T15:10:04;48.00;;;31.00;;
29120;SDS011;16191;49.548;8.658;2023-02-15T15:12:44;47.60;;;29.30;;
29120;SDS011;16191;49.548;8.658;2023-02-15T15:17:58;45.15;;;28.02;;
29120;SDS011;16191;49.548;8.658;2023-02-15T15:34:10;44.28;;;28.08;;
29120;SDS011;16191;49.548;8.658;2023-02-15T15:40:00;44.00;;;27.20;;
29120;SDS011;16191;49.548;8.658;2023-02-15T15:42:50;48.97;;;27.45;;
29120;SDS011;16191;49.548;8.658;2023-02-15T15:47:57;44.38;;;28.05;;
29120;SDS011;16191;49.548;8.658;2023-02-15T15:50:42;44.35;;;28.52;;
29120;SDS011;16191;49.548;8.658;2023-02-15T15:53:17;50.88;;;29.75;;
29120;SDS011;16191;49.548;8.658;2023-02-15T15:55:48;47.95;;;28.88;;
29120;SDS011;16191;49.548;8.658;2023-02-15T15:58:20;46.75;;;29.42;;
29120;SDS011;16191;49.548;8.658;2023-02-15T16:00:50;48.70;;;30.25;;
29120;SDS011;16191;49.548;8.658;2023-02-15T16:03:22;45.85;;;29.50;;
29120;SDS011;16191;49.548;8.658;2023-02-15T16:08:28;52.60;;;30.75;;
29120;SDS011;16191;49.548;8.658;2023-02-15T16:11:00;52.90;;;30.90;;
29120;SDS011;16191;49.548;8.658;2023-02-15T16:13:36;60.38;;;33.17;;
29120;SDS011;16191;49.548;8.658;2023-02-15T16:16:05;53.72;;;32.72;;
29120;SDS011;16191;49.548;8.658;2023-02-15T16:18:32;50.35;;;31.77;;
29120;SDS011;16191;49.548;8.658;2023-02-15T16:21:05;57.45;;;32.72;;
29120;SDS011;16191;49.548;8.658;2023-02-15T16:26:32;57.77;;;32.53;;
29120;SDS011;16191;49.548;8.658;2023-02-15T16:29:16;65.28;;;34.20;;
29120;SDS011;16191;49.548;8.658;2023-02-15T16:34:52;57.60;;;33.85;;
29120;SDS011;16191;49.548;8.658;2023-02-15T16:37:21;58.83;;;34.00;;
29120;SDS011;16191;49.548;8.658;2023-02-15T16:39:54;57.13;;;34.15;;
29120;SDS011;16191;49.548;8.658;2023-02-15T16:42:21;61.95;;;34.97;;
29120;SDS011;16191;49.548;8.658;2023-02-15T16:44:53;61.53;;;35.23;;
29120;SDS011;16191;49.548;8.658;2023-02-15T16:47:27;61.50;;;36.03;;
29120;SDS011;16191;49.548;8.658;2023-02-15T16:50:00;63.50;;;34.50;;
29120;SDS011;16191;49.548;8.658;2023-02-15T16:52:31;63.13;;;34.22;;
29120;SDS011;16191;49.548;8.658;2023-02-15T16:55:03;61.42;;;33.72;;
29120;SDS011;16191;49.548;8.658;2023-02-15T16:57:33;60.90;;;33.80;;
29120;SDS011;16191;49.548;8.658;2023-02-15T17:00:14;59.33;;;34.30;;
29120;SDS011;16191;49.548;8.658;2023-02-15T17:02:56;64.60;;;35.15;;
29120;SDS011;16191;49.548;8.658;2023-02-15T17:05:30;61.65;;;34.42;;
29120;SDS011;16191;49.548;8.658;2023-02-15T17:13:28;62.30;;;35.92;;
29120;SDS011;16191;49.548;8.658;2023-02-15T17:18:32;67.57;;;36.38;;
29120;SDS011;16191;49.548;8.658;2023-02-15T17:21:10;66.30;;;37.58;;
29120;SDS011;16191;49.548;8.658;2023-02-15T17:23:47;69.05;;;36.53;;
29120;SDS011;16191;49.548;8.658;2023-02-15T17:26:23;59.03;;;33.75;;
29120;SDS011;16191;49.548;8.658;2023-02-15T17:28:59;64.55;;;35.58;;
29120;SDS011;16191;49.548;8.658;2023-02-15T17:31:30;61.53;;;34.28;;
29120;SDS011;16191;49.548;8.658;2023-02-15T17:33:58;61.03;;;34.47;;
29120;SDS011;16191;49.548;8.658;2023-02-15T17:36:27;59.47;;;35.63;;
29120;SDS011;16191;49.548;8.658;2023-02-15T17:43:50;58.35;;;33.63;;
29120;SDS011;16191;49.548;8.658;2023-02-15T17:46:17;60.38;;;34.42;;
29120;SDS011;16191;49.548;8.658;2023-02-15T17:48:46;61.00;;;34.03;;
29120;SDS011;16191;49.548;8.658;2023-02-15T17:51:14;59.33;;;33.88;;
29120;SDS011;16191;49.548;8.658;2023-02-15T17:53:42;63.13;;;35.03;;
29120;SDS011;16191;49.548;8.658;2023-02-15T17:56:29;61.47;;;34.83;;
29120;SDS011;16191;49.548;8.658;2023-02-15T17:58:56;63.38;;;35.08;;
29120;SDS011;16191;49.548;8.658;2023-02-15T18:01:23;60.85;;;35.53;;
29120;SDS011;16191;49.548;8.658;2023-02-15T18:04:10;59.60;;;34.25;;
29120;SDS011;16191;49.548;8.658;2023-02-15T18:06:57;64.15;;;34.13;;
29120;SDS011;16191;49.548;8.658;2023-02-15T18:09:43;65.15;;;36.15;;
29120;SDS011;16191;49.548;8.658;2023-02-15T18:12:34;63.40;;;34.28;;
29120;SDS011;16191;49.548;8.658;2023-02-15T18:15:04;63.10;;;35.75;;
29120;SDS011;16191;49.548;8.658;2023-02-15T18:17:33;58.30;;;34.90;;